sensor_id;sensor_type;location;lat;lon;timestamp;pressure;altitude;pressure_sealevel;temperature;humidity
54854;BME280;40747;49.480;8.658;2023-01-27T00:01:05;100765.59;;;-0.24;100.00
54854;BME280;40747;49.480;8.658;2023-01-27T00:03:30;100782.03;;;-0.21;100.00
54854;BME280;40747;49.480;8.658;2023-01-27T00:05:56;100776.09;;;-0.17;100.00
54854;BME280;40747;49.480;8.658;2023-01-27T00:08:22;100776.91;;;-0.19;100.00
54854;BME280;40747;49.480;8.658;2023-01-27T00:10:48;100771.28;;;-0.41;100.00
54854;BME280;40747;49.480;8.658;2023-01-27T00:13:33;100743.75;;;-0.77;100.00
54854;BME280;40747;49.480;8.658;2023-01-27T00:15:58;100772.19;;;-0.37;100.00
54854;BME280;40747;49.480;8.658;2023-01-27T00:18:23;100768.91;;;-0.30;100.00
54854;BME280;40747;49.480;8.658;2023-01-27T00:20:50;100765.88;;;-0.50;100.00
54854;BME280;40747;49.480;8.658;2023-01-27T00:23:33;100767.81;;;-0.41;100.00
54854;BME280;40747;49.480;8.658;2023-01-27T00:26:18;100767.28;;;-0.66;100.00
54854;BME280;40747;49.480;8.658;2023-01-27T00:28:44;100767.75;;;-0.44;100.00
54854;BME280;40747;49.480;8.658;2023-01-27T00:31:12;100769.19;;;-0.57;100.00
54854;BME280;40747;49.480;8.658;2023-01-27T00:33:56;100753.59;;;-0.60;100.00
54854;BME280;40747;49.480;8.658;2023-01-27T00:36:27;100759.03;;;-0.50;100.00
54854;BME280;40747;49.480;8.658;2023-01-27T00:38:53;100757.97;;;-0.58;100.00
54854;BME280;40747;49.480;8.658;2023-01-27T00:41:19;100746.28;;;-0.78;100.00
54854;BME280;40747;49.480;8.658;2023-01-27T00:43:49;100760.72;;;-0.50;100.00
54854;BME280;40747;49.480;8.658;2023-01-27T00:46:15;100754.09;;;-0.77;100.00
54854;BME280;40747;49.480;8.658;2023-01-27T00:48:41;100758.94;;;-0.53;100.00
54854;BME280;40747;49.480;8.658;2023-01-27T00:51:08;100754.63;;;-0.54;100.00
54854;BME280;40747;49.480;8.658;2023-01-27T00:53:33;100751.72;;;-0.68;100.00
54854;BME280;40747;49.480;8.658;2023-01-27T00:55:59;100726.66;;;-0.70;100.00
54854;BME280;40747;49.480;8.658;2023-01-27T00:58:25;100755.66;;;-0.44;100.00
54854;BME280;40747;49.480;8.658;2023-01-27T01:00:55;100746.38;;;-0.36;100.00
54854;BME280;40747;49.480;8.658;2023-01-27T01:03:21;100747.66;;;-0.15;100.00
54854;BME280;40747;49.480;8.658;2023-01-27T01:05:47;100740.44;;;-0.30;100.00
54854;BME280;40747;49.480;8.658;2023-01-27T01:08:13;100745.47;;;-0.36;100.00
54854;BME280;40747;49.480;8.658;2023-01-27T01:10:38;100741.25;;;-0.32;100.00
54854;BME280;40747;49.480;8.658;2023-01-27T01:13:04;100742.31;;;-0.23;100.00
54854;BME280;40747;49.480;8.658;2023-01-27T01:15:35;100746.66;;;-0.22;100.00
54854;BME280;40747;49.480;8.658;2023-01-27T01:18:01;100751.88;;;-0.19;100.00
54854;BME280;40747;49.480;8.658;2023-01-27T01:20:27;100749.28;;;-0.20;100.00
54854;BME280;40747;49.480;8.658;2023-01-27T01:22:52;100750.38;;;-0.07;100.00
54854;BME280;40747;49.480;8.658;2023-01-27T01:25:18;100755.00;;;-0.35;100.00
54854;BME280;40747;49.480;8.658;2023-01-27T01:27:43;100749.50;;;-0.51;100.00
54854;BME280;40747;49.480;8.658;2023-01-27T01:30:10;100743.75;;;-0.77;100.00
54854;BME280;40747;49.480;8.658;2023-01-27T01:32:35;100756.19;;;-0.60;100.00
54854;BME280;40747;49.480;8.658;2023-01-27T01:35:00;100747.59;;;-0.58;100.00
54854;BME280;40747;49.480;8.658;2023-01-27T01:37:26;100754.00;;;-0.42;100.00
54854;BME280;40747;49.480;8.658;2023-01-27T01:39:51;100755.03;;;-0.32;100.00
54854;BME280;40747;49.480;8.658;2023-01-27T01:42:16;100759.19;;;-0.40;100.00
54854;BME280;40747;49.480;8.658;2023-01-27T01:44:43;100756.47;;;-0.46;100.00
54854;BME280;40747;49.480;8.658;2023-01-27T01:47:18;100755.94;;;-0.31;100.00
54854;BME280;40747;49.480;8.658;2023-01-27T01:49:45;100753.09;;;-0.42;100.00
54854;BME280;40747;49.480;8.658;2023-01-27T01:52:18;100752.31;;;-0.40;100.00
54854;BME280;40747;49.480;8.658;2023-01-27T01:54:55;100748.28;;;-0.27;100.00
54854;BME280;40747;49.480;8.658;2023-01-27T01:57:27;100752.13;;;-0.47;100.00
54854;BME280;40747;49.480;8.658;2023-01-27T02:00:04;100751.16;;;-0.53;100.00
54854;BME280;40747;49.480;8.658;2023-01-27T02:02:34;100749.34;;;-0.58;100.00
54854;BME280;40747;49.480;8.658;2023-01-27T02:07:34;100745.09;;;-0.55;100.00
54854;BME280;40747;49.480;8.658;2023-01-27T02:10:03;100728.13;;;-0.81;100.00
54854;BME280;40747;49.480;8.658;2023-01-27T02:12:28;100749.09;;;-0.69;100.00
54854;BME280;40747;49.480;8.658;2023-01-27T02:14:54;100745.81;;;-0.60;100.00
54854;BME280;40747;49.480;8.658;2023-01-27T02:17:19;100731.44;;;-0.47;100.00
54854;BME280;40747;49.480;8.658;2023-01-27T02:19:52;100740.63;;;-0.62;100.00
54854;BME280;40747;49.480;8.658;2023-01-27T02:22:37;100735.47;;;-0.60;100.00
54854;BME280;40747;49.480;8.658;2023-01-27T02:27:58;100732.56;;;-0.76;100.00
54854;BME280;40747;49.480;8.658;2023-01-27T02:30:23;100733.84;;;-0.55;100.00
54854;BME280;40747;49.480;8.658;2023-01-27T02:32:49;100732.56;;;-0.76;100.00
54854;BME280;40747;49.480;8.658;2023-01-27T02:35:20;100735.53;;;-0.59;100.00
54854;BME280;40747;49.480;8.658;2023-01-27T02:37:47;100729.81;;;-0.42;100.00
54854;BME280;40747;49.480;8.658;2023-01-27T02:40:15;100720.28;;;-0.45;100.00
54854;BME280;40747;49.480;8.658;2023-01-27T02:42:41;100735.16;;;-0.35;100.00
54854;BME280;40747;49.480;8.658;2023-01-27T02:45:06;100727.56;;;-0.68;100.00
54854;BME280;40747;49.480;8.658;2023-01-27T02:47:31;100730.28;;;-0.62;100.00
54854;BME280;40747;49.480;8.658;2023-01-27T02:49:57;100743.91;;;-0.69;100.00
54854;BME280;40747;49.480;8.658;2023-01-27T02:52:22;100744.00;;;-0.66;100.00
54854;BME280;40747;49.480;8.658;2023-01-27T02:54:48;100733.38;;;-0.78;100.00
54854;BME280;40747;49.480;8.658;2023-01-27T02:57:13;100742.56;;;-0.52;100.00
54854;BME280;40747;49.480;8.658;2023-01-27T02:59:38;100737.56;;;-0.44;100.00
54854;BME280;40747;49.480;8.658;2023-01-27T03:02:04;100723.75;;;-0.44;100.00
54854;BME280;40747;49.480;8.658;2023-01-27T03:04:29;100743.56;;;-0.45;100.00
54854;BME280;40747;49.480;8.658;2023-01-27T03:06:54;100738.84;;;-0.64;100.00
54854;BME280;40747;49.480;8.658;2023-01-27T03:09:20;100739.63;;;-0.69;100.00
54854;BME280;40747;49.480;8.658;2023-01-27T03:11:45;100741.22;;;-0.75;100.00
54854;BME280;40747;49.480;8.658;2023-01-27T03:14:29;100744.84;;;-0.66;100.00
54854;BME280;40747;49.480;8.658;2023-01-27T03:17:13;100740.63;;;-0.62;100.00
54854;BME280;40747;49.480;8.658;2023-01-27T03:19:57;100743.31;;;-0.57;100.00
54854;BME280;40747;49.480;8.658;2023-01-27T03:22:22;100752.91;;;-0.53;100.00
54854;BME280;40747;49.480;8.658;2023-01-27T03:24:48;100749.38;;;-0.57;100.00
54854;BME280;40747;49.480;8.658;2023-01-27T03:27:13;100742.25;;;-0.67;100.00
54854;BME280;40747;49.480;8.658;2023-01-27T03:29:38;100746.81;;;-0.55;100.00
54854;BME280;40747;49.480;8.658;2023-01-27T03:32:19;100742.44;;;-0.58;100.00
54854;BME280;40747;49.480;8.658;2023-01-27T03:34:44;100745.25;;;-0.47;100.00
54854;BME280;40747;49.480;8.658;2023-01-27T03:37:09;100752.25;;;-0.43;100.00
54854;BME280;40747;49.480;8.658;2023-01-27T03:39:53;100751.31;;;-0.46;100.00
54854;BME280;40747;49.480;8.658;2023-01-27T03:42:37;100749.44;;;-0.54;100.00
54854;BME280;40747;49.480;8.658;2023-01-27T03:45:21;100745.81;;;-0.60;100.00
54854;BME280;40747;49.480;8.658;2023-01-27T03:48:05;100750.97;;;-0.62;100.00
54854;BME280;40747;49.480;8.658;2023-01-27T03:50:30;100756.31;;;-0.54;100.00
54854;BME280;40747;49.480;8.658;2023-01-27T03:53:01;100750.34;;;-0.50;100.00
54854;BME280;40747;49.480;8.658;2023-01-27T03:55:31;100762.59;;;-0.43;100.00
54854;BME280;40747;49.480;8.658;2023-01-27T03:57:56;100754.53;;;-0.57;100.00
54854;BME280;40747;49.480;8.658;2023-01-27T04:00:30;100720.00;;;-0.59;100.00
54854;BME280;40747;49.480;8.658;2023-01-27T04:02:56;100766.09;;;-0.41;100.00
54854;BME280;40747;49.480;8.658;2023-01-27T04:05:40;100770.09;;;-0.55;100.00
54854;BME280;40747;49.480;8.658;2023-01-27T04:08:24;100770.56;;;-0.32;100.00
54854;BME280;40747;49.480;8.658;2023-01-27T04:10:49;100769.75;;;-0.31;100.00
54854;BME280;40747;49.480;8.658;2023-01-27T04:13:34;100767.38;;;-0.22;100.00
54854;BME280;40747;49.480;8.658;2023-01-27T04:16:00;100769.25;;;-0.13;100.00
54854;BME280;40747;49.480;8.658;2023-01-27T04:18:25;100759.03;;;-0.05;100.00
54854;BME280;40747;49.480;8.658;2023-01-27T04:20:50;100769.31;;;-0.11;100.00
54854;BME280;40747;49.480;8.658;2023-01-27T04:23:15;100767.47;;;-0.15;100.00
54854;BME280;40747;49.480;8.658;2023-01-27T04:25:41;100767.53;;;-0.12;100.00
54854;BME280;40747;49.480;8.658;2023-01-27T04:28:06;100775.22;;;-0.17;100.00
54854;BME280;40747;49.480;8.658;2023-01-27T04:30:31;100768.84;;;-0.33;100.00
54854;BME280;40747;49.480;8.658;2023-01-27T04:32:57;100767.94;;;-0.35;100.00
54854;BME280;40747;49.480;8.658;2023-01-27T04:35:22;100766.00;;;-0.45;100.00
54854;BME280;40747;49.480;8.658;2023-01-27T04:37:47;100769.66;;;-0.36;100.00
54854;BME280;40747;49.480;8.658;2023-01-27T04:40:12;100781.72;;;-0.36;100.00
54854;BME280;40747;49.480;8.658;2023-01-27T04:42:38;100779.34;;;-0.27;100.00
54854;BME280;40747;49.480;8.658;2023-01-27T04:45:04;100781.00;;;-0.30;100.00
54854;BME280;40747;49.480;8.658;2023-01-27T04:47:29;100773.81;;;-0.42;100.00
54854;BME280;40747;49.480;8.658;2023-01-27T04:49:54;100772.91;;;-0.46;100.00
54854;BME280;40747;49.480;8.658;2023-01-27T04:52:19;100771.63;;;-0.65;100.00
54854;BME280;40747;49.480;8.658;2023-01-27T04:54:45;100782.84;;;-0.63;100.00
54854;BME280;40747;49.480;8.658;2023-01-27T04:57:10;100790.97;;;-0.47;100.00
54854;BME280;40747;49.480;8.658;2023-01-27T04:59:35;100771.06;;;-0.50;100.00
54854;BME280;40747;49.480;8.658;2023-01-27T05:02:01;100769.13;;;-0.60;100.00
54854;BME280;40747;49.480;8.658;2023-01-27T05:04:28;100776.69;;;-0.28;100.00
54854;BME280;40747;49.480;8.658;2023-01-27T05:06:53;100772.47;;;-0.25;100.00
54854;BME280;40747;49.480;8.658;2023-01-27T05:09:19;100773.50;;;-0.17;100.00
54854;BME280;40747;49.480;8.658;2023-01-27T05:11:44;100780.53;;;-0.09;100.00
54854;BME280;40747;49.480;8.658;2023-01-27T05:14:09;100783.38;;;0.02;100.00
54854;BME280;40747;49.480;8.658;2023-01-27T05:16:37;100774.28;;;0.24;100.00
54854;BME280;40747;49.480;8.658;2023-01-27T05:19:02;100777.81;;;0.27;100.00
54854;BME280;40747;49.480;8.658;2023-01-27T05:21:28;100775.31;;;0.32;100.00
54854;BME280;40747;49.480;8.658;2023-01-27T05:23:54;100770.34;;;0.44;100.00
54854;BME280;40747;49.480;8.658;2023-01-27T05:26:22;100777.19;;;0.41;100.00
54854;BME280;40747;49.480;8.658;2023-01-27T05:28:49;100779.03;;;0.02;100.00
54854;BME280;40747;49.480;8.658;2023-01-27T05:31:23;100784.59;;;0.21;100.00
54854;BME280;40747;49.480;8.658;2023-01-27T05:33:50;100787.72;;;0.03;100.00
54854;BME280;40747;49.480;8.658;2023-01-27T05:36:17;100780.09;;;0.10;100.00
54854;BME280;40747;49.480;8.658;2023-01-27T05:38:43;100790.63;;;0.20;100.00
54854;BME280;40747;49.480;8.658;2023-01-27T05:41:10;100778.53;;;0.20;100.00
54854;BME280;40747;49.480;8.658;2023-01-27T05:43:37;100781.75;;;0.08;100.00
54854;BME280;40747;49.480;8.658;2023-01-27T05:46:12;100791.41;;;0.15;100.00
54854;BME280;40747;49.480;8.658;2023-01-27T05:48:40;100794.19;;;0.26;100.00
54854;BME280;40747;49.480;8.658;2023-01-27T05:51:07;100763.66;;;0.10;100.00
54854;BME280;40747;49.480;8.658;2023-01-27T05:53:33;100792.00;;;0.02;100.00
54854;BME280;40747;49.480;8.658;2023-01-27T05:56:00;100803.41;;;0.10;100.00
54854;BME280;40747;49.480;8.658;2023-01-27T05:58:26;100803.28;;;0.06;100.00
54854;BME280;40747;49.480;8.658;2023-01-27T06:00:54;100790.28;;;0.03;100.00
54854;BME280;40747;49.480;8.658;2023-01-27T06:03:20;100800.34;;;0.33;100.00
54854;BME280;40747;49.480;8.658;2023-01-27T06:05:53;100802.78;;;0.24;100.00
54854;BME280;40747;49.480;8.658;2023-01-27T06:08:20;100798.69;;;0.37;100.00
54854;BME280;40747;49.480;8.658;2023-01-27T06:10:45;100813.19;;;0.27;100.00
54854;BME280;40747;49.480;8.658;2023-01-27T06:13:11;100804.72;;;0.36;100.00
54854;BME280;40747;49.480;8.658;2023-01-27T06:15:39;100805.91;;;0.52;100.00
54854;BME280;40747;49.480;8.658;2023-01-27T06:18:04;100799.13;;;0.61;100.00
54854;BME280;40747;49.480;8.658;2023-01-27T06:20:31;100805.09;;;0.54;100.00
54854;BME280;40747;49.480;8.658;2023-01-27T06:22:56;100799.19;;;0.15;100.00
54854;BME280;40747;49.480;8.658;2023-01-27T06:25:23;100810.72;;;-0.11;100.00
54854;BME280;40747;49.480;8.658;2023-01-27T06:27:53;100799.63;;;-0.06;100.00
54854;BME280;40747;49.480;8.658;2023-01-27T06:30:18;100800.66;;;0.03;100.00
54854;BME280;40747;49.480;8.658;2023-01-27T06:32:43;100804.09;;;0.02;100.00
54854;BME280;40747;49.480;8.658;2023-01-27T06:35:09;100804.28;;;0.12;100.00
54854;BME280;40747;49.480;8.658;2023-01-27T06:37:34;100801.91;;;0.23;100.00
54854;BME280;40747;49.480;8.658;2023-01-27T06:39:59;100803.03;;;0.38;100.00
54854;BME280;40747;49.480;8.658;2023-01-27T06:42:25;100810.19;;;0.51;100.00
54854;BME280;40747;49.480;8.658;2023-01-27T06:44:50;100809.09;;;0.38;100.00
54854;BME280;40747;49.480;8.658;2023-01-27T06:47:16;100799.22;;;0.19;100.00
54854;BME280;40747;49.480;8.658;2023-01-27T06:49:41;100817.09;;;0.51;100.00
54854;BME280;40747;49.480;8.658;2023-01-27T06:52:06;100824.47;;;0.76;100.00
54854;BME280;40747;49.480;8.658;2023-01-27T06:54:31;100839.03;;;0.68;100.00
54854;BME280;40747;49.480;8.658;2023-01-27T06:56:57;100838.91;;;0.60;100.00
54854;BME280;40747;49.480;8.658;2023-01-27T06:59:22;100842.91;;;0.44;100.00
54854;BME280;40747;49.480;8.658;2023-01-27T07:01:47;100833.88;;;0.24;100.00
54854;BME280;40747;49.480;8.658;2023-01-27T07:04:12;100833.09;;;0.29;100.00
54854;BME280;40747;49.480;8.658;2023-01-27T07:06:38;100848.44;;;0.19;100.00
54854;BME280;40747;49.480;8.658;2023-01-27T07:09:03;100855.38;;;0.20;100.00
54854;BME280;40747;49.480;8.658;2023-01-27T07:11:28;100855.97;;;0.06;100.00
54854;BME280;40747;49.480;8.658;2023-01-27T07:13:53;100850.69;;;0.44;100.00
54854;BME280;40747;49.480;8.658;2023-01-27T07:16:19;100854.38;;;0.57;100.00
54854;BME280;40747;49.480;8.658;2023-01-27T07:18:44;100853.00;;;0.76;100.00
54854;BME280;40747;49.480;8.658;2023-01-27T07:21:10;100865.25;;;0.85;100.00
54854;BME280;40747;49.480;8.658;2023-01-27T07:23:35;100870.44;;;0.85;100.00
54854;BME280;40747;49.480;8.658;2023-01-27T07:26:01;100868.88;;;0.93;100.00
54854;BME280;40747;49.480;8.658;2023-01-27T07:28:27;100858.03;;;0.69;100.00
54854;BME280;40747;49.480;8.658;2023-01-27T07:30:52;100870.28;;;0.76;100.00
54854;BME280;40747;49.480;8.658;2023-01-27T07:33:17;100874.22;;;0.55;100.00
54854;BME280;40747;49.480;8.658;2023-01-27T07:35:42;100870.16;;;0.68;100.00
54854;BME280;40747;49.480;8.658;2023-01-27T07:38:08;100861.81;;;0.86;100.00
54854;BME280;40747;49.480;8.658;2023-01-27T07:40:34;100882.59;;;0.88;100.00
54854;BME280;40747;49.480;8.658;2023-01-27T07:43:00;100888.81;;;0.96;100.00
54854;BME280;40747;49.480;8.658;2023-01-27T07:45:26;100884.59;;;1.03;100.00
54854;BME280;40747;49.480;8.658;2023-01-27T07:47:52;100873.28;;;0.97;100.00
54854;BME280;40747;49.480;8.658;2023-01-27T07:50:19;100892.50;;;1.09;100.00
54854;BME280;40747;49.480;8.658;2023-01-27T07:52:45;100887.34;;;1.12;100.00
54854;BME280;40747;49.480;8.658;2023-01-27T07:55:10;100897.81;;;1.17;100.00
54854;BME280;40747;49.480;8.658;2023-01-27T07:57:36;100897.88;;;1.23;100.00
54854;BME280;40747;49.480;8.658;2023-01-27T08:00:02;100897.56;;;1.01;100.00
54854;BME280;40747;49.480;8.658;2023-01-27T08:02:29;100907.25;;;1.13;100.00
54854;BME280;40747;49.480;8.658;2023-01-27T08:04:55;100909.88;;;0.24;100.00
54854;BME280;40747;49.480;8.658;2023-01-27T08:07:21;100906.38;;;-0.19;100.00
54854;BME280;40747;49.480;8.658;2023-01-27T08:09:50;100905.19;;;-0.32;100.00
54854;BME280;40747;49.480;8.658;2023-01-27T08:12:18;100915.47;;;-0.37;100.00
54854;BME280;40747;49.480;8.658;2023-01-27T08:14:44;100894.56;;;-0.44;100.00
54854;BME280;40747;49.480;8.658;2023-01-27T08:17:09;100905.13;;;-0.35;100.00
54854;BME280;40747;49.480;8.658;2023-01-27T08:19:35;100908.38;;;-0.44;100.00
54854;BME280;40747;49.480;8.658;2023-01-27T08:22:00;100909.69;;;-0.25;100.00
54854;BME280;40747;49.480;8.658;2023-01-27T08:24:26;100916.78;;;-0.16;100.00
54854;BME280;40747;49.480;8.658;2023-01-27T08:26:51;100907.25;;;-0.17;100.00
54854;BME280;40747;49.480;8.658;2023-01-27T08:29:17;100908.56;;;-0.36;100.00
54854;BME280;40747;49.480;8.658;2023-01-27T08:31:42;100910.47;;;-0.29;100.00
54854;BME280;40747;49.480;8.658;2023-01-27T08:34:07;100910.59;;;-0.23;100.00
54854;BME280;40747;49.480;8.658;2023-01-27T08:36:32;100905.34;;;-0.26;100.00
54854;BME280;40747;49.480;8.658;2023-01-27T08:38:57;100915.00;;;-0.19;100.00
54854;BME280;40747;49.480;8.658;2023-01-27T08:41:25;100912.38;;;-0.20;100.00
54854;BME280;40747;49.480;8.658;2023-01-27T08:43:53;100917.75;;;-0.12;100.00
54854;BME280;40747;49.480;8.658;2023-01-27T08:46:18;100914.94;;;-0.22;100.00
54854;BME280;40747;49.480;8.658;2023-01-27T08:48:43;100917.56;;;-0.20;100.00
54854;BME280;40747;49.480;8.658;2023-01-27T08:51:11;100914.81;;;-0.26;100.00
54854;BME280;40747;49.480;8.658;2023-01-27T08:53:37;100918.50;;;-0.17;100.00
54854;BME280;40747;49.480;8.658;2023-01-27T08:56:05;100921.00;;;-0.20;100.00
54854;BME280;40747;49.480;8.658;2023-01-27T08:58:32;100911.00;;;-0.04;100.00
54854;BME280;40747;49.480;8.658;2023-01-27T09:01:02;100920.81;;;0.09;100.00
54854;BME280;40747;49.480;8.658;2023-01-27T09:03:29;100921.00;;;0.19;100.00
54854;BME280;40747;49.480;8.658;2023-01-27T09:05:58;100922.56;;;0.10;100.00
54854;BME280;40747;49.480;8.658;2023-01-27T09:08:24;100927.63;;;0.06;100.00
54854;BME280;40747;49.480;8.658;2023-01-27T09:10:49;100915.75;;;0.15;100.00
54854;BME280;40747;49.480;8.658;2023-01-27T09:13:15;100925.38;;;0.21;100.00
54854;BME280;40747;49.480;8.658;2023-01-27T09:15:41;100926.19;;;0.19;100.00
54854;BME280;40747;49.480;8.658;2023-01-27T09:18:08;100931.63;;;0.31;100.00
54854;BME280;40747;49.480;8.658;2023-01-27T09:20:36;100930.00;;;0.36;99.10
54854;BME280;40747;49.480;8.658;2023-01-27T09:23:04;100928.38;;;0.41;98.02
54854;BME280;40747;49.480;8.658;2023-01-27T09:25:29;100927.56;;;0.42;97.20
54854;BME280;40747;49.480;8.658;2023-01-27T09:27:56;100930.19;;;0.45;99.07
54854;BME280;40747;49.480;8.658;2023-01-27T09:30:23;100944.97;;;0.51;98.24
54854;BME280;40747;49.480;8.658;2023-01-27T09:32:48;100938.00;;;0.48;96.01
54854;BME280;40747;49.480;8.658;2023-01-27T09:35:14;100934.13;;;0.28;98.04
54854;BME280;40747;49.480;8.658;2023-01-27T09:37:53;100922.31;;;0.41;97.94
54854;BME280;40747;49.480;8.658;2023-01-27T09:40:40;100934.47;;;0.43;97.30
54854;BME280;40747;49.480;8.658;2023-01-27T09:56:42;100957.09;;;0.51;97.25
54854;BME280;40747;49.480;8.658;2023-01-27T10:10:17;100964.34;;;0.67;94.66
54854;BME280;40747;49.480;8.658;2023-01-27T10:12:57;100954.00;;;0.70;95.24
54854;BME280;40747;49.480;8.658;2023-01-27T10:18:48;100956.81;;;0.79;95.42
54854;BME280;40747;49.480;8.658;2023-01-27T10:21:39;100955.06;;;0.78;94.65
54854;BME280;40747;49.480;8.658;2023-01-27T10:24:19;100950.75;;;0.80;95.22
54854;BME280;40747;49.480;8.658;2023-01-27T10:26:55;100957.84;;;0.89;95.13
54854;BME280;40747;49.480;8.658;2023-01-27T10:29:39;100942.25;;;0.88;95.62
54854;BME280;40747;49.480;8.658;2023-01-27T10:32:08;100938.16;;;1.01;94.20
54854;BME280;40747;49.480;8.658;2023-01-27T10:34:48;100939.81;;;0.97;94.50
54854;BME280;40747;49.480;8.658;2023-01-27T10:37:33;100928.59;;;0.96;94.48
54854;BME280;40747;49.480;8.658;2023-01-27T10:45:18;100931.91;;;0.91;93.00
54854;BME280;40747;49.480;8.658;2023-01-27T10:50:39;100922.63;;;1.02;94.74
54854;BME280;40747;49.480;8.658;2023-01-27T10:53:17;100920.25;;;1.14;94.68
54854;BME280;40747;49.480;8.658;2023-01-27T10:58:48;100928.13;;;1.19;94.86
54854;BME280;40747;49.480;8.658;2023-01-27T11:01:19;100925.53;;;1.19;94.81
54854;BME280;40747;49.480;8.658;2023-01-27T11:03:58;100934.19;;;1.20;93.95
54854;BME280;40747;49.480;8.658;2023-01-27T11:06:36;100928.25;;;1.25;94.44
54854;BME280;40747;49.480;8.658;2023-01-27T11:11:48;100918.81;;;1.30;94.66
54854;BME280;40747;49.480;8.658;2023-01-27T11:14:24;100916.03;;;1.21;93.42
54854;BME280;40747;49.480;8.658;2023-01-27T11:16:52;100912.72;;;1.28;94.86
54854;BME280;40747;49.480;8.658;2023-01-27T11:19:29;100909.31;;;1.33;93.62
54854;BME280;40747;49.480;8.658;2023-01-27T11:21:57;100907.47;;;1.25;93.14
54854;BME280;40747;49.480;8.658;2023-01-27T11:24:37;100912.84;;;1.36;93.92
54854;BME280;40747;49.480;8.658;2023-01-27T11:27:16;100908.63;;;1.43;93.65
54854;BME280;40747;49.480;8.658;2023-01-27T11:29:52;100906.09;;;1.46;94.52
54854;BME280;40747;49.480;8.658;2023-01-27T11:34:56;100898.44;;;1.55;94.05
54854;BME280;40747;49.480;8.658;2023-01-27T11:37:36;100896.94;;;1.71;93.94
54854;BME280;40747;49.480;8.658;2023-01-27T11:40:03;100898.50;;;1.60;93.51
54854;BME280;40747;49.480;8.658;2023-01-27T11:42:37;100898.41;;;1.54;93.97
54854;BME280;40747;49.480;8.658;2023-01-27T11:45:03;100904.47;;;1.56;93.17
54854;BME280;40747;49.480;8.658;2023-01-27T11:47:38;100890.56;;;1.52;93.19
54854;BME280;40747;49.480;8.658;2023-01-27T11:50:06;100889.75;;;1.55;94.09
54854;BME280;40747;49.480;8.658;2023-01-27T11:52:32;100893.31;;;1.60;94.02
54854;BME280;40747;49.480;8.658;2023-01-27T11:57:42;100889.00;;;1.62;94.50
54854;BME280;40747;49.480;8.658;2023-01-27T12:00:26;100895.91;;;1.60;94.40
54854;BME280;40747;49.480;8.658;2023-01-27T12:03:10;100891.59;;;1.60;93.84
54854;BME280;40747;49.480;8.658;2023-01-27T12:05:44;100888.19;;;1.64;93.42
54854;BME280;40747;49.480;8.658;2023-01-27T12:08:10;100881.13;;;1.56;94.35
54854;BME280;40747;49.480;8.658;2023-01-27T12:10:40;100876.63;;;1.44;92.76
54854;BME280;40747;49.480;8.658;2023-01-27T12:13:15;100899.28;;;1.54;92.88
54854;BME280;40747;49.480;8.658;2023-01-27T12:16:11;100893.25;;;1.57;93.54
54854;BME280;40747;49.480;8.658;2023-01-27T12:18:46;100902.88;;;1.62;93.83
54854;BME280;40747;49.480;8.658;2023-01-27T12:21:14;100887.19;;;1.56;92.16
54854;BME280;40747;49.480;8.658;2023-01-27T12:23:47;100899.41;;;1.63;92.19
54854;BME280;40747;49.480;8.658;2023-01-27T12:26:13;100893.34;;;1.63;93.03
54854;BME280;40747;49.480;8.658;2023-01-27T12:28:46;100898.53;;;1.61;91.50
54854;BME280;40747;49.480;8.658;2023-01-27T12:31:19;100900.28;;;1.62;92.54
54854;BME280;40747;49.480;8.658;2023-01-27T12:33:56;100896.78;;;1.62;92.16
54854;BME280;40747;49.480;8.658;2023-01-27T12:36:23;100897.47;;;1.49;90.39
54854;BME280;40747;49.480;8.658;2023-01-27T12:38:57;100891.38;;;1.46;89.96
54854;BME280;40747;49.480;8.658;2023-01-27T12:41:30;100897.59;;;1.56;91.40
54854;BME280;40747;49.480;8.658;2023-01-27T12:44:07;100898.41;;;1.54;90.38
54854;BME280;40747;49.480;8.658;2023-01-27T12:46:33;100893.34;;;1.61;90.06
54854;BME280;40747;49.480;8.658;2023-01-27T12:51:41;100896.84;;;1.65;89.09
54854;BME280;40747;49.480;8.658;2023-01-27T12:54:24;100892.53;;;1.67;88.59
54854;BME280;40747;49.480;8.658;2023-01-27T12:56:51;100884.00;;;1.74;89.05
54854;BME280;40747;49.480;8.658;2023-01-27T12:59:18;100894.31;;;1.70;89.75
54854;BME280;40747;49.480;8.658;2023-01-27T13:04:24;100882.44;;;1.87;88.82
54854;BME280;40747;49.480;8.658;2023-01-27T13:09:25;100885.00;;;1.84;88.84
54854;BME280;40747;49.480;8.658;2023-01-27T13:11:53;100887.66;;;1.89;89.44
54854;BME280;40747;49.480;8.658;2023-01-27T13:14:19;100873.97;;;2.01;89.04
54854;BME280;40747;49.480;8.658;2023-01-27T13:16:55;100879.09;;;1.96;88.43
54854;BME280;40747;49.480;8.658;2023-01-27T13:19:37;100871.31;;;1.94;88.65
54854;BME280;40747;49.480;8.658;2023-01-27T13:22:05;100880.88;;;2.00;88.32
54854;BME280;40747;49.480;8.658;2023-01-27T13:24:36;100883.59;;;2.09;88.20
54854;BME280;40747;49.480;8.658;2023-01-27T13:27:04;100884.50;;;2.10;87.69
54854;BME280;40747;49.480;8.658;2023-01-27T13:29:35;100883.69;;;2.17;87.55
54854;BME280;40747;49.480;8.658;2023-01-27T13:32:18;100875.13;;;2.24;89.15
54854;BME280;40747;49.480;8.658;2023-01-27T13:34:51;100882.13;;;2.30;88.51
54854;BME280;40747;49.480;8.658;2023-01-27T13:37:31;100891.75;;;2.37;88.59
54854;BME280;40747;49.480;8.658;2023-01-27T13:40:19;100893.31;;;2.21;87.65
54854;BME280;40747;49.480;8.658;2023-01-27T13:42:50;100889.13;;;2.34;88.74
54854;BME280;40747;49.480;8.658;2023-01-27T13:45:22;100889.97;;;2.32;89.06
54854;BME280;40747;49.480;8.658;2023-01-27T13:47:59;100892.50;;;2.27;88.15
54854;BME280;40747;49.480;8.658;2023-01-27T13:50:36;100886.53;;;2.34;88.21
54854;BME280;40747;49.480;8.658;2023-01-27T13:53:03;100889.06;;;2.28;88.19
54854;BME280;40747;49.480;8.658;2023-01-27T13:58:29;100885.53;;;2.24;89.20
54854;BME280;40747;49.480;8.658;2023-01-27T14:01:14;100859.44;;;2.17;88.24